createdAt,value
2023-05-10T00:00:24.498Z,12.11
2023-05-10T00:12:24.434Z,12.10
2023-05-10T00:24:24.519Z,12.09
2023-05-10T00:36:24.429Z,12.08
2023-05-10T00:48:24.427Z,12.07
2023-05-10T01:00:24.575Z,12.05
2023-05-10T01:12:24.448Z,12.05
2023-05-10T01:24:24.502Z,12.03
2023-05-10T01:36:24.495Z,12.02
2023-05-10T01:48:24.522Z,12.01
2023-05-10T02:00:24.548Z,12.00
2023-05-10T02:12:24.431Z,11.98
2023-05-10T02:24:24.534Z,11.98
2023-05-10T02:36:24.560Z,11.97
2023-05-10T02:48:24.530Z,11.95
2023-05-10T03:00:24.820Z,11.95
2023-05-10T03:12:24.453Z,11.94
2023-05-10T03:24:24.433Z,11.92
2023-05-10T03:36:24.518Z,11.91
2023-05-10T03:48:24.498Z,11.89
2023-05-10T04:00:24.446Z,11.89
2023-05-10T04:12:24.422Z,11.88
2023-05-10T04:24:24.788Z,11.85
2023-05-10T04:36:24.454Z,11.86
2023-05-10T04:48:24.556Z,11.85
2023-05-10T05:00:24.440Z,11.84
2023-05-10T05:12:24.444Z,11.83
2023-05-10T05:24:24.549Z,11.83
2023-05-10T05:36:24.541Z,11.83
2023-05-10T05:48:24.527Z,11.83
2023-05-10T06:00:24.534Z,11.82
2023-05-10T06:12:24.441Z,11.83
2023-05-10T06:24:24.525Z,11.85
2023-05-10T06:36:24.493Z,11.89
2023-05-10T06:48:24.616Z,11.93
2023-05-10T07:00:24.493Z,11.92
2023-05-10T07:12:24.445Z,11.91
2023-05-10T07:24:24.428Z,11.92
2023-05-10T07:36:24.474Z,11.94
2023-05-10T07:48:24.533Z,11.94
2023-05-10T08:00:24.427Z,11.94
2023-05-10T08:12:24.418Z,11.96
2023-05-10T08:24:24.484Z,11.94
2023-05-10T08:36:24.426Z,11.93
2023-05-10T08:48:24.740Z,11.94
2023-05-10T09:00:24.459Z,11.94
2023-05-10T09:12:24.504Z,11.94
2023-05-10T09:24:27.935Z,11.98
2023-05-10T09:36:24.444Z,12.04
2023-05-10T09:48:24.458Z,12.07
2023-05-10T10:00:26.319Z,12.11
2023-05-10T10:12:24.446Z,12.15
2023-05-10T10:24:24.498Z,12.28
2023-05-10T10:36:29.706Z,12.34
2023-05-10T10:48:24.568Z,12.36
2023-05-10T11:00:24.493Z,12.43
2023-05-10T11:12:33.515Z,12.45
2023-05-10T11:24:24.418Z,12.44
2023-05-10T11:36:24.431Z,12.52
2023-05-10T11:48:28.940Z,12.50
2023-05-10T12:00:24.433Z,12.60
2023-05-10T12:12:24.583Z,12.63
2023-05-10T12:24:24.422Z,12.60
2023-05-10T12:36:24.428Z,12.59
2023-05-10T12:48:24.434Z,12.59
2023-05-10T13:00:24.433Z,12.60
2023-05-10T13:12:24.558Z,12.61
2023-05-10T13:24:24.504Z,12.63
2023-05-10T13:36:24.430Z,12.66
2023-05-10T13:48:24.546Z,12.67
2023-05-10T14:00:24.433Z,12.67
2023-05-10T14:12:24.454Z,12.67
2023-05-10T14:24:24.488Z,12.67
2023-05-10T14:36:24.532Z,12.67
2023-05-10T14:48:24.423Z,12.65
2023-05-10T15:00:24.426Z,12.63
2023-05-10T15:12:24.560Z,12.61
2023-05-10T15:24:24.517Z,12.60
2023-05-10T15:36:24.516Z,12.60
2023-05-10T15:48:24.515Z,12.61
2023-05-10T16:00:24.435Z,12.63
2023-05-10T16:12:24.534Z,12.64
2023-05-10T16:24:24.511Z,12.62
2023-05-10T16:36:24.496Z,12.62
2023-05-10T16:48:24.486Z,12.59
2023-05-10T17:00:24.435Z,12.59
2023-05-10T17:12:24.515Z,12.59
2023-05-10T17:24:24.492Z,12.59
2023-05-10T17:36:24.491Z,12.60
2023-05-10T17:48:24.496Z,12.59
2023-05-10T18:00:24.431Z,12.59
2023-05-10T18:12:24.534Z,12.58
2023-05-10T18:24:36.948Z,12.57
2023-05-10T18:36:24.436Z,12.56
2023-05-10T18:48:24.518Z,12.55
2023-05-10T19:00:24.432Z,12.53
2023-05-10T19:12:24.486Z,12.52
2023-05-10T19:24:24.433Z,12.50
2023-05-10T19:36:24.543Z,12.49
2023-05-10T19:48:24.501Z,12.47
2023-05-10T20:00:24.438Z,12.46
2023-05-10T20:12:24.434Z,12.45
2023-05-10T20:24:24.553Z,12.43
2023-05-10T20:36:24.532Z,12.42
2023-05-10T20:48:24.521Z,12.41
2023-05-10T21:00:24.432Z,12.39
2023-05-10T21:12:24.556Z,12.39
2023-05-10T21:24:24.443Z,12.37
2023-05-10T21:36:24.523Z,12.36
2023-05-10T21:48:24.437Z,12.34
2023-05-10T22:00:24.433Z,12.33
2023-05-10T22:12:24.563Z,12.32
2023-05-10T22:24:24.495Z,12.31
2023-05-10T22:36:24.516Z,12.29
2023-05-10T22:48:24.438Z,12.27
2023-05-10T23:00:24.450Z,12.27
2023-05-10T23:12:24.507Z,12.26
2023-05-10T23:24:24.547Z,12.25
2023-05-10T23:36:24.520Z,12.23
2023-05-10T23:48:24.426Z,12.21
